Time;durP1;ratioP1;P1;durP2;ratioP2;P2;SDS_P1;SDS_P2;PMS_P1;PMS_P2;Temp;Humidity;BMP_temperature;BMP_pressure;BME280_temperature;BME280_humidity;BME280_pressure;Samples;Min_cycle;Max_cycle;Signal;HPM_P1;HPM_P2
2023/06/10 00:01:46;;;;;;;5.68;5.18;;;22.00;68.10;;;;;;4994266;28;20049;-65
2023/06/10 00:04:13;;;;;;;5.28;4.78;;;22.00;68.10;;;;;;4994518;28;20038;-62
2023/06/10 00:06:39;;;;;;;5.25;4.75;;;22.00;68.10;;;;;;4990718;28;20045;-64
2023/06/10 00:09:05;;;;;;;5.55;5.05;;;22.00;68.10;;;;;;4994676;28;20038;-65
2023/06/10 00:11:34;;;;;;;6.22;5.00;;;22.00;68.10;;;;;;4997676;28;20091;-63
2023/06/10 00:14:00;;;;;;;5.10;4.70;;;22.00;68.10;;;;;;4996078;28;20126;-66
2023/06/10 00:16:26;;;;;;;6.03;4.82;;;22.00;68.20;;;;;;4993444;28;20038;-66
2023/06/10 00:18:51;;;;;;;5.78;5.25;;;22.00;68.10;;;;;;5000437;28;20497;-66
2023/06/10 00:21:17;;;;;;;5.35;4.85;;;22.00;68.20;;;;;;4998923;28;20030;-66
2023/06/10 00:23:43;;;;;;;5.28;4.80;;;22.00;68.10;;;;;;4997607;28;20037;-63
2023/06/10 00:26:09;;;;;;;5.05;4.65;;;22.00;68.10;;;;;;4997776;28;20035;-65
2023/06/10 00:28:34;;;;;;;6.43;5.43;;;22.00;68.10;;;;;;4995969;28;20519;-66
2023/06/10 00:31:00;;;;;;;4.65;4.13;;;22.00;68.10;;;;;;4993676;28;20030;-61
2023/06/10 00:33:26;;;;;;;5.30;4.80;;;22.00;68.00;;;;;;4994285;28;20030;-63
2023/06/10 00:35:51;;;;;;;5.53;5.00;;;22.00;68.10;;;;;;4993802;28;20038;-63
2023/06/10 00:38:17;;;;;;;6.30;5.80;;;22.00;68.10;;;;;;4988532;28;20027;-67
2023/06/10 00:40:42;;;;;;;5.55;5.05;;;22.00;68.10;;;;;;4999712;28;20091;-66
2023/06/10 00:43:08;;;;;;;5.22;4.68;;;22.00;68.10;;;;;;4993208;28;20050;-63
2023/06/10 00:45:34;;;;;;;5.68;4.97;;;22.00;68.10;;;;;;4994549;28;20389;-64
2023/06/10 00:48:00;;;;;;;5.25;4.78;;;22.00;68.20;;;;;;4996054;28;20080;-64
2023/06/10 00:50:26;;;;;;;5.10;4.60;;;22.00;68.00;;;;;;4999610;28;20025;-67
2023/06/10 00:52:52;;;;;;;5.00;4.60;;;22.00;68.00;;;;;;4998147;28;20044;-65
2023/06/10 00:55:18;;;;;;;5.30;4.85;;;22.00;68.10;;;;;;4993121;28;20122;-65
2023/06/10 00:57:45;;;;;;;5.75;5.25;;;22.00;68.00;;;;;;4993617;28;20117;-63
2023/06/10 01:00:12;;;;;;;5.85;5.32;;;22.00;68.00;;;;;;4995250;28;20637;-61
2023/06/10 01:02:38;;;;;;;5.28;4.78;;;22.00;68.00;;;;;;4993785;28;20060;-66
2023/06/10 01:05:03;;;;;;;5.30;4.90;;;22.00;68.00;;;;;;4992093;28;20046;-63
2023/06/10 01:08:04;;;;;;;5.93;4.88;;;22.00;68.00;;;;;;4989365;28;20061;-62
2023/06/10 01:10:45;;;;;;;5.60;4.93;;;22.00;68.00;;;;;;4991788;28;20572;-65
2023/06/10 01:13:13;;;;;;;5.25;4.75;;;22.00;67.90;;;;;;4990316;28;20042;-63
2023/06/10 01:15:39;;;;;;;5.03;4.53;;;22.00;68.00;;;;;;4993510;28;20571;-65
2023/06/10 01:18:14;;;;;;;5.57;5.07;;;22.00;68.00;;;;;;4999111;28;20116;-65
2023/06/10 01:20:40;;;;;;;5.15;4.75;;;22.00;68.00;;;;;;4999617;28;20037;-66
2023/06/10 01:23:07;;;;;;;6.93;5.10;;;22.00;68.00;;;;;;4996881;28;20030;-66
2023/06/10 01:25:36;;;;;;;5.88;5.05;;;22.00;68.00;;;;;;4994528;28;20034;-63
2023/06/10 01:28:20;;;;;;;5.32;4.63;;;22.00;68.00;;;;;;4995013;28;20715;-66
2023/06/10 01:31:00;;;;;;;5.47;4.97;;;22.00;68.00;;;;;;4991506;28;20033;-66
2023/06/10 01:33:28;;;;;;;5.70;5.20;;;22.00;68.00;;;;;;4997882;28;20034;-66
2023/06/10 01:35:55;;;;;;;4.95;4.55;;;22.00;68.00;;;;;;4997158;28;20026;-63
2023/06/10 01:38:22;;;;;;;5.72;5.25;;;22.00;68.00;;;;;;4995412;28;20031;-65
2023/06/10 01:40:50;;;;;;;5.03;4.63;;;22.00;67.90;;;;;;4996895;28;20136;-64
2023/06/10 01:43:15;;;;;;;5.97;4.93;;;22.00;68.00;;;;;;4994410;28;20405;-66
2023/06/10 01:45:41;;;;;;;5.95;5.45;;;22.00;68.00;;;;;;4998169;28;20075;-66
2023/06/10 01:48:07;;;;;;;5.47;5.00;;;22.00;68.00;;;;;;5001966;28;21607;-66
2023/06/10 01:50:32;;;;;;;5.70;5.20;;;22.00;68.00;;;;;;5000154;28;20034;-66
2023/06/10 01:52:59;;;;;;;5.57;5.05;;;22.00;67.90;;;;;;4998867;28;20117;-61
2023/06/10 01:55:24;;;;;;;6.30;5.78;;;22.00;68.00;;;;;;4997296;28;20136;-66
2023/06/10 01:57:51;;;;;;;4.80;4.40;;;22.00;68.00;;;;;;4996543;28;20117;-67
2023/06/10 02:00:17;;;;;;;5.55;5.05;;;22.00;68.00;;;;;;4997113;28;20111;-65
2023/06/10 02:02:42;;;;;;;5.38;4.43;;;22.00;67.90;;;;;;4999954;28;20022;-67
2023/06/10 02:05:08;;;;;;;5.10;4.70;;;22.00;67.90;;;;;;4994710;28;20022;-66
2023/06/10 02:07:33;;;;;;;5.65;5.15;;;22.00;67.90;;;;;;4997725;28;20022;-64
2023/06/10 02:09:59;;;;;;;5.97;5.20;;;22.00;68.00;;;;;;4999829;28;20417;-65
2023/06/10 02:12:24;;;;;;;6.72;5.32;;;22.00;67.90;;;;;;4993706;28;20697;-63
2023/06/10 02:14:50;;;;;;;5.03;4.55;;;22.00;68.00;;;;;;5003365;28;20122;-66
2023/06/10 02:17:16;;;;;;;5.40;4.90;;;22.00;68.00;;;;;;5001186;28;20034;-65
2023/06/10 02:19:52;;;;;;;5.55;5.05;;;22.00;67.90;;;;;;5000189;28;20282;-66
2023/06/10 02:22:21;;;;;;;5.55;5.05;;;22.00;67.90;;;;;;4999718;28;20468;-62
2023/06/10 02:24:46;;;;;;;5.57;5.07;;;22.00;67.90;;;;;;4995363;28;20034;-65
2023/06/10 02:27:12;;;;;;;5.28;4.88;;;22.00;67.90;;;;;;4996827;28;20030;-68
2023/06/10 02:29:37;;;;;;;5.20;4.80;;;22.00;67.90;;;;;;4996607;28;20034;-65
2023/06/10 02:32:03;;;;;;;5.57;4.68;;;22.00;67.90;;;;;;4998173;28;20619;-66
2023/06/10 02:34:29;;;;;;;5.90;5.25;;;22.00;67.90;;;;;;4999359;28;20046;-66
2023/06/10 02:36:54;;;;;;;5.80;5.30;;;22.00;67.80;;;;;;4999526;28;20026;-66
2023/06/10 02:39:21;;;;;;;5.70;5.30;;;22.00;67.90;;;;;;4995621;28;20037;-64
2023/06/10 02:41:46;;;;;;;5.78;4.90;;;22.00;67.90;;;;;;4994352;28;20046;-66
2023/06/10 02:44:12;;;;;;;6.07;5.47;;;22.00;67.90;;;;;;5001070;28;20716;-65
2023/06/10 02:46:37;;;;;;;5.15;4.70;;;22.00;67.90;;;;;;4998883;28;20110;-66
2023/06/10 02:49:03;;;;;;;5.05;4.65;;;22.00;67.90;;;;;;4999066;28;20826;-64
2023/06/10 02:51:28;;;;;;;5.22;4.72;;;22.00;67.80;;;;;;4994708;28;20057;-65
2023/06/10 02:53:54;;;;;;;5.97;5.47;;;22.00;67.90;;;;;;4995574;28;20045;-65
2023/06/10 02:56:20;;;;;;;5.03;4.53;;;22.00;67.90;;;;;;4994981;28;20556;-66
2023/06/10 02:58:45;;;;;;;5.53;5.00;;;22.00;67.80;;;;;;4998066;28;20038;-62
2023/06/10 03:01:11;;;;;;;5.68;5.18;;;22.00;67.80;;;;;;4994794;28;20532;-66
2023/06/10 03:03:40;;;;;;;5.60;5.10;;;22.00;67.90;;;;;;4995467;28;20160;-62
2023/06/10 03:06:06;;;;;;;5.60;5.10;;;22.00;67.80;;;;;;4995696;28;20037;-65
2023/06/10 03:08:31;;;;;;;7.55;5.43;;;22.00;67.80;;;;;;5000628;28;20042;-66
2023/06/10 03:10:57;;;;;;;5.82;5.32;;;22.00;67.80;;;;;;4995648;28;20574;-63
2023/06/10 03:13:23;;;;;;;5.18;4.78;;;22.00;67.80;;;;;;4999737;28;20520;-63
2023/06/10 03:15:49;;;;;;;5.68;5.18;;;22.00;67.80;;;;;;5000072;28;20685;-62
2023/06/10 03:18:15;;;;;;;5.95;5.45;;;22.00;67.80;;;;;;4999311;28;20054;-62
2023/06/10 03:20:40;;;;;;;5.40;4.95;;;22.00;67.70;;;;;;4996361;28;20117;-64
2023/06/10 03:23:09;;;;;;;6.07;5.47;;;22.00;67.70;;;;;;4998044;28;20113;-65
2023/06/10 03:25:34;;;;;;;5.50;5.05;;;22.00;67.80;;;;;;4993045;28;20023;-67
2023/06/10 03:28:00;;;;;;;6.00;5.50;;;21.90;67.70;;;;;;4994944;28;20503;-65
2023/06/10 03:30:26;;;;;;;5.88;5.38;;;22.00;67.80;;;;;;4991922;28;20026;-68
2023/06/10 03:32:52;;;;;;;6.10;5.57;;;22.00;67.80;;;;;;4994532;28;20053;-67
2023/06/10 03:35:17;;;;;;;5.70;5.20;;;22.00;67.70;;;;;;5001369;28;20022;-67
2023/06/10 03:37:43;;;;;;;5.40;4.90;;;22.00;67.60;;;;;;4999645;28;20088;-67
2023/06/10 03:40:09;;;;;;;5.32;4.90;;;22.00;67.90;;;;;;4988694;28;20150;-64
2023/06/10 03:42:35;;;;;;;5.65;5.15;;;22.00;67.60;;;;;;5011780;28;20408;-66
2023/06/10 03:45:01;;;;;;;5.95;5.45;;;22.00;67.50;;;;;;4999740;28;20026;-66
2023/06/10 03:47:33;;;;;;;5.82;5.00;;;22.00;67.50;;;;;;4998391;28;20583;-67
2023/06/10 03:49:58;;;;;;;5.75;5.15;;;22.00;67.40;;;;;;4998195;28;20731;-66
2023/06/10 03:52:24;;;;;;;5.97;5.45;;;22.00;67.50;;;;;;4994499;28;20041;-66
2023/06/10 03:54:49;;;;;;;5.63;5.13;;;22.00;67.40;;;;;;4993814;28;20508;-66
2023/06/10 03:57:14;;;;;;;6.20;5.60;;;22.00;67.50;;;;;;4997949;28;20033;-67
2023/06/10 03:59:40;;;;;;;6.30;5.70;;;22.00;67.40;;;;;;4996463;28;20038;-67
2023/06/10 04:02:06;;;;;;;6.75;6.15;;;22.00;67.40;;;;;;4997629;28;20408;-67
2023/06/10 04:04:32;;;;;;;5.97;5.45;;;22.00;67.40;;;;;;4994898;28;20494;-66
2023/06/10 04:06:57;;;;;;;5.32;4.93;;;22.00;67.40;;;;;;4995699;28;20038;-67
2023/06/10 04:09:23;;;;;;;5.88;5.38;;;22.00;67.40;;;;;;4990920;28;20113;-67
2023/06/10 04:11:48;;;;;;;5.97;5.38;;;22.00;67.50;;;;;;5000323;28;20037;-67
2023/06/10 04:14:14;;;;;;;5.95;5.35;;;22.00;67.40;;;;;;4998921;28;20101;-67
2023/06/10 04:16:40;;;;;;;6.93;6.22;;;22.00;67.40;;;;;;4997516;28;20038;-67
2023/06/10 04:19:06;;;;;;;6.28;5.70;;;22.00;67.30;;;;;;4997690;28;20033;-67
2023/06/10 04:21:32;;;;;;;6.47;5.90;;;22.00;67.30;;;;;;4993641;28;20042;-63
2023/06/10 04:23:58;;;;;;;7.13;6.40;;;22.00;67.30;;;;;;4993951;28;20397;-66
2023/06/10 04:26:23;;;;;;;6.60;6.00;;;22.00;67.20;;;;;;4996674;28;20027;-66
2023/06/10 04:28:49;;;;;;;6.55;5.95;;;22.00;67.20;;;;;;4993431;28;20049;-66
2023/06/10 04:31:14;;;;;;;6.70;6.10;;;22.00;67.20;;;;;;4995394;28;20138;-65
2023/06/10 04:33:40;;;;;;;6.05;5.55;;;22.00;67.10;;;;;;4996414;28;20113;-66
2023/06/10 04:36:06;;;;;;;7.07;6.40;;;22.00;67.10;;;;;;4995094;28;20060;-67
2023/06/10 04:38:32;;;;;;;7.10;6.45;;;22.00;67.60;;;;;;5000406;28;20058;-65
2023/06/10 04:40:58;;;;;;;7.80;5.97;;;22.00;66.90;;;;;;4998963;28;20111;-67
2023/06/10 04:43:23;;;;;;;7.60;6.90;;;22.10;66.90;;;;;;4998257;28;20350;-67
2023/06/10 04:45:49;;;;;;;7.85;7.05;;;22.10;66.90;;;;;;4997382;28;20026;-67
2023/06/10 04:48:15;;;;;;;7.43;6.72;;;22.10;66.80;;;;;;4995971;28;20385;-67
2023/06/10 04:50:40;;;;;;;7.18;6.47;;;22.10;66.80;;;;;;4994048;28;20117;-67
2023/06/10 04:53:06;;;;;;;8.63;6.60;;;22.10;66.80;;;;;;4992484;28;20038;-66
2023/06/10 04:55:33;;;;;;;8.15;7.15;;;22.10;66.90;;;;;;4995600;28;20149;-63
2023/06/10 04:57:58;;;;;;;7.90;7.05;;;22.20;67.10;;;;;;4993063;28;20023;-67
2023/06/10 05:00:24;;;;;;;7.57;6.57;;;22.20;67.20;;;;;;4999494;28;20559;-67
2023/06/10 05:02:49;;;;;;;7.18;6.57;;;22.20;67.10;;;;;;4996931;28;20435;-67
2023/06/10 05:05:16;;;;;;;7.57;6.90;;;22.20;67.20;;;;;;4996353;28;20109;-67
2023/06/10 05:07:42;;;;;;;7.60;6.90;;;22.20;67.20;;;;;;4996674;28;20472;-66
2023/06/10 05:10:08;;;;;;;7.40;6.70;;;22.20;67.20;;;;;;5010923;28;20112;-66
2023/06/10 05:12:33;;;;;;;8.63;6.97;;;22.20;67.20;;;;;;5003417;28;20033;-65
2023/06/10 05:14:59;;;;;;;7.10;6.38;;;22.20;67.30;;;;;;5000049;28;20032;-66
2023/06/10 05:17:25;;;;;;;8.95;7.32;;;22.20;67.10;;;;;;4998570;28;20073;-66
2023/06/10 05:19:50;;;;;;;7.45;6.82;;;22.20;67.20;;;;;;4999390;28;20041;-66
2023/06/10 05:22:17;;;;;;;8.45;6.78;;;22.20;67.20;;;;;;4998177;28;20039;-66
2023/06/10 05:24:46;;;;;;;9.05;8.25;;;22.20;67.20;;;;;;5000144;28;20026;-65
2023/06/10 05:27:11;;;;;;;8.18;6.50;;;22.20;67.20;;;;;;4995657;28;20034;-66
2023/06/10 05:29:37;;;;;;;7.05;6.45;;;22.20;67.10;;;;;;4999270;28;20708;-67
2023/06/10 05:32:03;;;;;;;8.40;7.15;;;22.20;67.20;;;;;;4995644;28;20030;-66
2023/06/10 05:34:32;;;;;;;8.07;7.28;;;22.20;67.20;;;;;;4998584;28;20558;-65
2023/06/10 05:36:57;;;;;;;7.55;6.85;;;22.20;67.30;;;;;;5000698;28;20033;-65
2023/06/10 05:39:23;;;;;;;7.40;6.70;;;22.20;67.20;;;;;;5002288;28;20039;-65
2023/06/10 05:41:48;;;;;;;7.55;6.85;;;22.20;67.10;;;;;;5002295;28;20034;-67
2023/06/10 05:44:14;;;;;;;8.27;7.45;;;22.20;67.20;;;;;;5001015;28;20596;-66
2023/06/10 05:46:39;;;;;;;7.78;6.97;;;22.20;67.30;;;;;;4998802;28;20030;-66
2023/06/10 05:49:05;;;;;;;7.40;6.78;;;22.20;67.20;;;;;;4999119;28;20114;-66
2023/06/10 05:51:30;;;;;;;7.85;6.90;;;22.20;67.20;;;;;;4997315;28;20568;-66
2023/06/10 05:53:56;;;;;;;8.80;8.00;;;22.20;67.20;;;;;;4996977;28;20041;-67
2023/06/10 05:56:22;;;;;;;8.25;7.53;;;22.20;67.20;;;;;;5002144;28;20042;-66
2023/06/10 05:58:48;;;;;;;8.00;7.30;;;22.20;67.30;;;;;;5000751;28;20056;-66
2023/06/10 06:01:13;;;;;;;6.95;6.35;;;22.20;67.20;;;;;;4999699;28;20035;-66
2023/06/10 06:03:39;;;;;;;7.82;7.10;;;22.20;67.30;;;;;;4998390;28;20037;-66
2023/06/10 06:06:05;;;;;;;7.00;6.40;;;22.30;67.30;;;;;;5000087;28;20038;-66
2023/06/10 06:08:31;;;;;;;7.35;6.68;;;22.20;67.30;;;;;;5002382;28;20134;-67
2023/06/10 06:10:56;;;;;;;7.55;6.50;;;22.20;67.20;;;;;;5001804;28;20147;-66
2023/06/10 06:13:22;;;;;;;7.55;6.88;;;22.20;67.30;;;;;;5002360;28;20034;-66
2023/06/10 06:15:48;;;;;;;7.20;6.50;;;22.20;67.20;;;;;;5000273;28;20084;-67
2023/06/10 06:18:14;;;;;;;8.30;7.50;;;22.20;67.20;;;;;;5001332;28;20472;-67
2023/06/10 06:20:39;;;;;;;7.45;6.82;;;22.20;67.30;;;;;;4997814;28;20046;-66
2023/06/10 06:23:05;;;;;;;7.55;6.85;;;22.20;67.30;;;;;;4997243;28;20042;-67
2023/06/10 06:25:31;;;;;;;7.65;6.95;;;22.20;67.30;;;;;;4992599;28;20109;-65
2023/06/10 06:27:56;;;;;;;7.90;7.20;;;22.20;67.20;;;;;;5003383;28;20521;-66
2023/06/10 06:30:21;;;;;;;7.90;7.20;;;22.20;67.20;;;;;;5004893;28;20030;-66
2023/06/10 06:32:47;;;;;;;8.48;7.68;;;22.20;67.10;;;;;;4997613;28;20552;-65
2023/06/10 06:35:12;;;;;;;7.32;6.65;;;22.20;67.20;;;;;;5003334;28;20018;-64
2023/06/10 06:37:38;;;;;;;7.50;6.82;;;22.20;67.20;;;;;;5003529;28;20029;-65
2023/06/10 06:40:05;;;;;;;7.82;7.00;;;22.20;67.20;;;;;;5001791;28;20408;-66
2023/06/10 06:42:30;;;;;;;7.85;7.07;;;22.20;67.20;;;;;;4999364;28;20173;-64
2023/06/10 06:44:56;;;;;;;7.68;6.95;;;22.20;67.30;;;;;;4997890;28;20124;-66
2023/06/10 06:47:21;;;;;;;7.40;6.60;;;22.20;67.30;;;;;;4997241;28;20505;-65
2023/06/10 06:49:47;;;;;;;7.15;6.50;;;22.20;67.20;;;;;;4998682;28;20034;-65
2023/06/10 06:52:13;;;;;;;7.78;7.00;;;22.20;67.30;;;;;;4997856;28;20121;-66
2023/06/10 06:54:39;;;;;;;7.43;6.72;;;22.20;67.40;;;;;;4993791;28;20064;-66
2023/06/10 06:57:05;;;;;;;7.30;6.60;;;22.20;67.40;;;;;;5002637;28;20025;-67
2023/06/10 06:59:31;;;;;;;7.60;6.88;;;22.20;67.20;;;;;;5000569;28;20034;-66
2023/06/10 07:01:56;;;;;;;7.50;6.80;;;22.20;67.20;;;;;;4998468;28;20029;-67
2023/06/10 07:04:22;;;;;;;7.60;6.80;;;22.20;67.20;;;;;;4996865;28;20540;-66
2023/06/10 07:06:48;;;;;;;8.13;7.40;;;22.20;67.30;;;;;;5001992;28;20034;-66
2023/06/10 07:09:13;;;;;;;9.05;7.30;;;22.20;67.30;;;;;;5000588;28;20060;-67
2023/06/10 07:11:39;;;;;;;7.07;6.45;;;22.20;67.30;;;;;;5001561;28;20058;-66
2023/06/10 07:14:04;;;;;;;7.30;6.60;;;22.20;67.30;;;;;;4997195;28;20096;-67
2023/06/10 07:16:30;;;;;;;7.85;7.15;;;22.20;67.50;;;;;;4998701;28;20026;-66
2023/06/10 07:18:56;;;;;;;6.72;6.13;;;22.20;67.50;;;;;;5001776;28;20034;-66
2023/06/10 07:21:23;;;;;;;9.20;7.32;;;22.20;67.60;;;;;;4998941;28;20034;-65
2023/06/10 07:23:48;;;;;;;9.18;6.90;;;22.20;67.40;;;;;;4989593;28;20042;-65
2023/06/10 07:26:14;;;;;;;7.47;6.78;;;22.20;67.60;;;;;;4997476;28;20107;-66
2023/06/10 07:28:41;;;;;;;7.97;7.28;;;22.20;67.70;;;;;;4992799;28;20576;-66
2023/06/10 07:31:07;;;;;;;8.70;7.60;;;22.20;67.70;;;;;;4993682;28;20070;-66
2023/06/10 07:33:33;;;;;;;10.50;6.95;;;22.20;67.70;;;;;;5000791;28;20056;-63
2023/06/10 07:35:58;;;;;;;8.43;7.68;;;22.20;67.60;;;;;;5001103;28;20687;-65
2023/06/10 07:38:25;;;;;;;8.43;7.63;;;22.20;67.80;;;;;;5000698;28;20497;-66
2023/06/10 07:40:50;;;;;;;8.90;8.05;;;22.20;68.00;;;;;;4998246;28;20033;-65
2023/06/10 07:43:16;;;;;;;8.23;7.43;;;22.20;68.00;;;;;;5000320;28;20504;-65
2023/06/10 07:45:42;;;;;;;8.77;7.75;;;22.20;67.90;;;;;;4999364;28;20117;-67
2023/06/10 07:48:08;;;;;;;7.60;6.90;;;22.20;67.80;;;;;;4993866;28;20030;-66
2023/06/10 07:50:34;;;;;;;8.82;7.40;;;22.20;67.60;;;;;;4994200;28;20038;-66
2023/06/10 07:53:00;;;;;;;8.50;7.78;;;22.20;67.90;;;;;;4992998;28;20403;-66
2023/06/10 07:55:26;;;;;;;8.30;7.50;;;22.20;68.00;;;;;;4996086;28;20059;-67
2023/06/10 07:57:52;;;;;;;7.88;7.07;;;22.20;67.90;;;;;;4997903;28;20027;-66
2023/06/10 08:00:18;;;;;;;9.38;8.30;;;22.20;68.10;;;;;;4997142;28;20037;-65
2023/06/10 08:02:43;;;;;;;8.27;7.47;;;22.20;68.00;;;;;;5001769;28;20344;-67
2023/06/10 08:05:09;;;;;;;7.75;7.10;;;22.20;67.80;;;;;;5003505;28;20389;-62
2023/06/10 08:07:35;;;;;;;8.18;7.38;;;22.20;67.70;;;;;;4999059;28;20042;-63
2023/06/10 08:10:01;;;;;;;8.40;7.60;;;22.20;67.50;;;;;;4998601;28;20526;-67
2023/06/10 08:12:26;;;;;;;9.30;8.10;;;22.20;67.60;;;;;;4996914;28;20029;-65
2023/06/10 08:14:52;;;;;;;8.65;7.85;;;22.10;67.40;;;;;;4994834;28;20472;-66
2023/06/10 08:17:17;;;;;;;7.93;7.13;;;22.10;67.50;;;;;;4997507;28;20031;-66
2023/06/10 08:19:43;;;;;;;8.55;7.80;;;22.20;67.50;;;;;;4999417;28;20042;-66
2023/06/10 08:22:08;;;;;;;8.77;7.80;;;22.20;67.60;;;;;;4993287;28;20532;-66
2023/06/10 08:24:33;;;;;;;8.50;7.75;;;22.20;67.50;;;;;;5000547;28;20037;-65
2023/06/10 08:26:59;;;;;;;9.45;7.80;;;22.20;67.50;;;;;;4998826;28;20026;-67
2023/06/10 08:29:25;;;;;;;7.57;6.93;;;22.20;67.40;;;;;;4995734;28;20057;-63
2023/06/10 08:31:50;;;;;;;7.85;7.15;;;22.20;67.50;;;;;;5000479;28;20133;-66
2023/06/10 08:34:16;;;;;;;8.40;7.57;;;22.20;67.40;;;;;;4998075;28;20033;-61
2023/06/10 08:36:44;;;;;;;8.77;7.90;;;22.20;67.40;;;;;;5001313;28;20042;-67
2023/06/10 08:39:10;;;;;;;7.85;7.15;;;22.20;67.40;;;;;;4996874;28;20034;-66
2023/06/10 08:41:42;;;;;;;7.70;7.00;;;22.20;67.50;;;;;;4995894;28;20048;-66
2023/06/10 08:44:22;;;;;;;8.27;7.57;;;22.20;67.40;;;;;;4995553;28;20037;-69
2023/06/10 08:46:48;;;;;;;8.68;7.78;;;22.20;67.30;;;;;;4992804;28;20095;-66
2023/06/10 08:49:20;;;;;;;8.10;7.30;;;22.20;67.30;;;;;;4996696;28;20096;-65
2023/06/10 08:51:49;;;;;;;8.45;7.57;;;22.20;67.40;;;;;;4996807;28;20567;-65
2023/06/10 08:54:20;;;;;;;8.50;7.70;;;22.20;67.40;;;;;;5003166;28;20033;-64
2023/06/10 08:56:51;;;;;;;8.13;7.28;;;22.20;67.40;;;;;;4993368;28;20031;-65
2023/06/10 08:59:16;;;;;;;7.95;6.95;;;22.20;67.50;;;;;;4999476;28;20030;-63
2023/06/10 09:01:43;;;;;;;8.25;7.55;;;22.20;67.40;;;;;;4997322;28;20045;-63
2023/06/10 09:04:09;;;;;;;8.48;7.63;;;22.10;67.50;;;;;;4999785;28;20535;-63
2023/06/10 09:06:36;;;;;;;7.82;7.00;;;22.20;67.60;;;;;;4998103;28;20062;-66
2023/06/10 09:09:02;;;;;;;8.18;7.38;;;22.10;67.50;;;;;;4996846;28;20113;-67
2023/06/10 09:11:28;;;;;;;8.77;7.68;;;22.20;67.60;;;;;;4996422;28;20038;-62
2023/06/10 09:13:54;;;;;;;8.65;7.75;;;22.20;67.80;;;;;;4996722;28;20128;-60
2023/06/10 09:16:19;;;;;;;7.40;6.70;;;22.20;67.80;;;;;;4993338;28;20030;-67
2023/06/10 09:18:45;;;;;;;8.85;8.00;;;22.20;67.90;;;;;;4994774;28;20101;-67
2023/06/10 09:21:11;;;;;;;8.05;7.30;;;22.20;67.90;;;;;;4988777;28;20030;-63
2023/06/10 09:23:37;;;;;;;8.98;8.07;;;22.20;68.00;;;;;;4996286;28;20708;-67
2023/06/10 09:26:08;;;;;;;7.93;7.22;;;22.20;67.90;;;;;;4992950;28;20064;-67
2023/06/10 09:28:33;;;;;;;10.13;7.78;;;22.20;68.00;;;;;;4997654;28;20500;-65
2023/06/10 09:31:07;;;;;;;9.40;8.40;;;22.20;68.00;;;;;;4996407;28;20033;-65
2023/06/10 09:33:32;;;;;;;9.05;8.25;;;22.20;68.50;;;;;;4998034;28;20034;-67
2023/06/10 09:36:01;;;;;;;9.20;8.13;;;22.20;67.90;;;;;;4999842;28;20489;-67
2023/06/10 09:38:32;;;;;;;9.75;8.85;;;22.20;67.90;;;;;;4995077;28;20058;-64
2023/06/10 09:40:58;;;;;;;10.05;8.55;;;22.20;67.80;;;;;;4993449;28;20136;-67
2023/06/10 09:43:41;;;;;;;8.98;8.10;;;22.20;67.80;;;;;;4993127;28;20085;-67
2023/06/10 09:46:15;;;;;;;9.63;8.65;;;22.20;67.80;;;;;;4993162;28;20037;-67
2023/06/10 09:48:45;;;;;;;8.07;7.38;;;22.20;67.70;;;;;;4992857;28;20102;-68
2023/06/10 09:51:11;;;;;;;9.07;8.18;;;22.20;67.70;;;;;;4993990;28;20052;-66
2023/06/10 09:53:37;;;;;;;8.80;7.93;;;22.20;67.60;;;;;;4997295;28;20480;-66
2023/06/10 09:56:03;;;;;;;9.02;8.23;;;22.20;67.60;;;;;;5001059;28;20046;-66
2023/06/10 09:58:39;;;;;;;9.00;8.20;;;22.20;67.60;;;;;;4998696;28;20037;-67
2023/06/10 10:01:08;;;;;;;8.07;7.25;;;22.20;67.60;;;;;;5002053;28;20037;-67
2023/06/10 10:03:42;;;;;;;8.73;7.93;;;22.20;67.50;;;;;;5000983;28;20128;-64
2023/06/10 10:06:09;;;;;;;8.73;7.78;;;22.20;67.50;;;;;;5000634;28;20515;-67
2023/06/10 10:08:34;;;;;;;7.70;7.07;;;22.20;67.30;;;;;;4998922;28;20041;-65
2023/06/10 10:11:00;;;;;;;8.20;7.40;;;22.20;67.30;;;;;;4998646;28;20038;-67
2023/06/10 10:13:27;;;;;;;8.63;7.70;;;22.20;67.20;;;;;;4995802;28;20034;-64
2023/06/10 10:15:55;;;;;;;7.97;7.30;;;22.20;67.20;;;;;;4999917;28;20038;-67
2023/06/10 10:18:28;;;;;;;8.13;7.03;;;22.20;67.20;;;;;;4990306;28;20037;-66
2023/06/10 10:20:55;;;;;;;8.30;7.50;;;22.20;67.20;;;;;;4998172;28;20491;-64
2023/06/10 10:23:36;;;;;;;10.05;7.47;;;22.20;67.10;;;;;;4995906;28;20041;-66
2023/06/10 10:26:06;;;;;;;7.75;6.95;;;22.20;67.00;;;;;;4994053;28;20026;-67
2023/06/10 10:28:58;;;;;;;7.70;7.00;;;22.20;67.00;;;;;;5001321;28;20069;-68
2023/06/10 10:31:26;;;;;;;7.55;6.95;;;22.20;66.90;;;;;;5000420;28;20433;-67
2023/06/10 10:33:59;;;;;;;7.38;6.68;;;22.20;66.80;;;;;;5001071;28;20435;-67
2023/06/10 10:36:26;;;;;;;6.88;6.28;;;22.20;66.80;;;;;;5001092;28;20025;-67
2023/06/10 10:38:51;;;;;;;7.35;6.65;;;22.20;66.80;;;;;;4997770;28;20030;-66
2023/06/10 10:41:19;;;;;;;7.32;6.63;;;22.20;66.80;;;;;;4997863;28;20394;-66
2023/06/10 10:43:46;;;;;;;7.50;6.80;;;22.20;66.70;;;;;;4996945;28;20026;-66
2023/06/10 10:46:14;;;;;;;8.40;6.75;;;22.20;66.70;;;;;;4996829;28;20117;-67
2023/06/10 10:48:44;;;;;;;7.30;6.70;;;22.20;66.60;;;;;;4993463;28;20453;-67
2023/06/10 10:51:10;;;;;;;7.28;6.57;;;22.20;66.60;;;;;;4997455;28;20563;-67
2023/06/10 10:53:39;;;;;;;7.07;6.00;;;22.20;66.60;;;;;;4993516;28;20501;-64
2023/06/10 10:56:09;;;;;;;7.22;6.53;;;22.20;66.60;;;;;;4999410;28;20061;-65
2023/06/10 10:58:35;;;;;;;7.38;6.68;;;22.20;66.60;;;;;;4995446;28;20038;-66
2023/06/10 11:01:14;;;;;;;7.30;6.45;;;22.20;66.60;;;;;;5001743;28;20025;-65
2023/06/10 11:03:47;;;;;;;7.63;6.93;;;22.20;66.70;;;;;;4998246;28;20033;-66
2023/06/10 11:06:15;;;;;;;7.05;6.35;;;22.20;66.60;;;;;;4999869;28;20022;-63
2023/06/10 11:08:40;;;;;;;8.10;7.30;;;22.20;66.60;;;;;;4995954;28;20140;-68
2023/06/10 11:11:26;;;;;;;9.73;6.45;;;22.20;66.60;;;;;;4996320;28;20050;-63
2023/06/10 11:14:01;;;;;;;7.75;7.05;;;22.20;66.60;;;;;;4987616;28;20093;-65
2023/06/10 11:16:28;;;;;;;9.25;6.90;;;22.20;66.60;;;;;;4999623;28;20034;-65
2023/06/10 11:18:54;;;;;;;8.35;7.38;;;22.20;66.60;;;;;;4996438;28;20057;-64
2023/06/10 11:21:20;;;;;;;7.90;7.05;;;22.20;66.70;;;;;;4999950;28;20052;-66
2023/06/10 11:23:46;;;;;;;7.93;7.07;;;22.20;66.70;;;;;;4999894;28;20426;-66
2023/06/10 11:26:34;;;;;;;7.30;6.63;;;22.20;66.60;;;;;;4999890;28;20061;-66
2023/06/10 11:28:59;;;;;;;7.30;6.57;;;22.20;66.60;;;;;;5002036;28;20034;-67
2023/06/10 11:31:41;;;;;;;8.05;7.20;;;22.20;66.60;;;;;;5001739;28;20050;-66
2023/06/10 11:34:07;;;;;;;7.57;6.78;;;22.20;66.60;;;;;;5000244;28;20026;-65
2023/06/10 11:36:40;;;;;;;8.10;7.32;;;22.20;66.60;;;;;;5000594;28;20053;-66
2023/06/10 11:39:06;;;;;;;8.82;7.93;;;22.20;66.50;;;;;;4997139;28;20034;-66
2023/06/10 11:41:33;;;;;;;7.75;6.70;;;22.20;66.50;;;;;;4997795;28;20132;-66
2023/06/10 11:44:04;;;;;;;8.20;7.35;;;22.20;66.60;;;;;;4998767;28;20058;-66
2023/06/10 11:46:30;;;;;;;8.77;7.38;;;22.20;66.60;;;;;;4991679;28;20124;-66
2023/06/10 11:48:57;;;;;;;8.25;7.00;;;22.30;66.60;;;;;;4999222;28;20065;-67
2023/06/10 11:51:27;;;;;;;10.30;7.30;;;22.20;67.20;;;;;;4997121;28;20480;-65
2023/06/10 11:53:52;;;;;;;25.67;22.95;;;22.30;66.70;;;;;;4996992;28;20455;-67
2023/06/10 11:56:22;;;;;;;52.15;46.65;;;22.20;66.70;;;;;;4999528;28;20168;-67
2023/06/10 11:59:12;;;;;;;57.05;50.53;;;22.20;66.90;;;;;;5001355;28;20038;-66
2023/06/10 12:01:44;;;;;;;57.03;50.17;;;22.30;67.00;;;;;;5000919;28;20061;-68
2023/06/10 12:04:11;;;;;;;59.28;48.10;;;22.30;67.60;;;;;;4998327;28;20037;-66
2023/06/10 12:06:48;;;;;;;71.25;48.22;;;22.30;67.60;;;;;;4999271;28;20034;-67
2023/06/10 12:09:28;;;;;;;66.05;48.55;;;22.30;68.00;;;;;;4997510;28;20061;-66
2023/06/10 12:12:04;;;;;;;92.28;52.85;;;22.30;69.50;;;;;;4995829;28;20099;-64
2023/06/10 12:14:59;;;;;;;121.95;66.00;;;22.30;69.50;;;;;;4992914;28;20181;-67
2023/06/10 12:17:31;;;;;;;125.18;69.22;;;22.40;70.00;;;;;;4995555;28;20030;-65
2023/06/10 12:19:57;;;;;;;118.15;61.42;;;22.40;70.60;;;;;;5002706;28;20037;-64
2023/06/10 12:22:23;;;;;;;103.60;58.75;;;22.40;70.90;;;;;;4996832;28;20128;-68
2023/06/10 12:25:06;;;;;;;90.45;49.97;;;22.40;70.80;;;;;;5000713;28;20088;-66
2023/06/10 12:27:33;;;;;;;79.85;42.08;;;22.40;71.10;;;;;;5000582;28;20259;-66
2023/06/10 12:30:04;;;;;;;69.50;38.15;;;22.40;70.90;;;;;;4999738;28;20599;-66
2023/06/10 12:32:36;;;;;;;65.28;34.55;;;22.40;70.70;;;;;;5000305;28;20636;-67
2023/06/10 12:35:06;;;;;;;58.53;32.25;;;22.40;70.50;;;;;;4998458;28;20034;-64
2023/06/10 12:37:35;;;;;;;52.22;30.52;;;22.40;70.30;;;;;;4997770;28;20038;-67
2023/06/10 12:40:11;;;;;;;48.22;28.60;;;22.40;70.20;;;;;;4994323;28;20026;-65
2023/06/10 12:42:37;;;;;;;46.67;26.45;;;22.40;69.90;;;;;;4995640;28;20127;-63
2023/06/10 12:45:03;;;;;;;40.90;23.67;;;22.40;69.90;;;;;;4993516;28;20397;-67
2023/06/10 12:47:32;;;;;;;40.63;22.77;;;22.40;69.70;;;;;;4995918;28;20034;-66